الصفحة الرئيسية
METAR-TAF:

METAR-TAF

مطار :

Gunnison, كولورادو, الولايات المتحدة

دائرة عرض: 38-32N, خط طول: 106-56W, ارتفاع: 2339 متر

مراقبة الطقس الحالي

تاريخ ووقت الإصدار 35 دقيقة قبل الساعة 20:56UTC
رياح هادئة
درجة الحرارة 6°درجة مئوية
الرطوبة 12%
ضغط 1024 hPa
الرؤية: 16.1 كم
سماء صافية

METAR: KGUC 152056Z AUTO 00000KT 10SM CLR 06/M21 A3025 RMK AO2 SLPNO 6//// T00611206

زمن: 15:31 (21:31 UTC)

توقعات

تاريخ ووقت الإصدار 4ساعات و 11 دقيقة قبل الساعة 17:20UTC
التوقعات صالحة من15 الساعة 18 UTC إلى 16 الساعة 18 UTC
ريح 4 عقدة من الشمال الغربي
الرؤية: 10 كم
سماء صافية
من 15 الساعة 2200 UTC
ريح 6 عقدة من الجنوب الغربي
الرؤية: 10 كم
سماء صافية
من 16 الساعة 0400 UTC
ريح 5 عقدة من الشرق/الشمال الشرقي
الرؤية: 10 كم
سماء صافية

TAF: KGUC 151720Z 1518/1618 31004KT P6SM SKC FM152200 22006KT P6SM SKC FM160400 07005KT P6SM SKC

أرصاد الطقس والتوقعات من أكثر من 4000 مطار (تقارير الطقس للمطار METAR والتنبؤ بالطقس بالمطارTAF).

المحطات المتاحة هي النقط الصفراء والحمراء على الخريطة.

حرك المؤشر فوق النقطة لمعرفة اسم المحطة.

ثم انقر لمعرفة أرصاد وتوقعات الطقس.

لتغيير الخارطة: اضغط على الأزرار الخضراء مع رمز الصليب الأسود للتكبير. على الزر الأخضر مع شرطة للتصغير، أو على الأسهم الخضراء للخرائط المجاورة.


METAR-TAF: